createdAt,value
2022-09-22T00:00:59.679Z,33.42
2022-09-22T00:03:38.290Z,33.99
2022-09-22T00:06:08.355Z,34.20
2022-09-22T00:08:38.202Z,33.84
2022-09-22T00:11:09.071Z,34.31
2022-09-22T00:13:37.728Z,34.51
2022-09-22T00:16:09.065Z,34.12
2022-09-22T00:18:38.869Z,34.02
2022-09-22T00:21:09.404Z,34.48
2022-09-22T00:23:38.610Z,34.41
2022-09-22T00:26:08.251Z,34.23
2022-09-22T00:28:36.653Z,34.45
2022-09-22T00:31:10.618Z,33.81
2022-09-22T00:33:40.891Z,34.43
2022-09-22T00:36:10.077Z,34.35
2022-09-22T00:38:39.173Z,34.25
2022-09-22T00:41:11.092Z,34.17
2022-09-22T00:43:40.382Z,34.20
2022-09-22T00:46:15.349Z,33.56
2022-09-22T00:48:49.728Z,33.63
2022-09-22T00:51:21.955Z,33.56
2022-09-22T00:53:50.738Z,33.91
2022-09-22T00:56:23.325Z,33.36
2022-09-22T00:58:55.662Z,33.53
2022-09-22T01:01:24.103Z,33.96
2022-09-22T01:03:54.602Z,33.69
2022-09-22T01:06:26.816Z,33.52
2022-09-22T01:08:56.207Z,33.48
2022-09-22T01:11:25.304Z,33.44
2022-09-22T01:13:59.469Z,33.23
2022-09-22T01:16:41.263Z,32.81
2022-09-22T01:19:21.447Z,32.24
2022-09-22T01:21:52.154Z,33.29
2022-09-22T01:24:48.353Z,32.56
2022-09-22T01:27:57.516Z,32.43
2022-09-22T01:30:32.885Z,32.78
2022-09-22T01:33:11.985Z,32.94
2022-09-22T01:35:48.222Z,32.53
2022-09-22T01:38:24.978Z,32.90
2022-09-22T01:40:57.361Z,33.07
2022-09-22T01:43:35.344Z,32.71
2022-09-22T01:46:08.383Z,32.76
2022-09-22T01:48:38.068Z,33.17
2022-09-22T01:51:10.703Z,32.91
2022-09-22T01:53:44.340Z,32.92
2022-09-22T01:56:14.917Z,32.90
2022-09-22T01:58:47.927Z,32.81
2022-09-22T02:01:25.718Z,32.83
2022-09-22T02:03:59.974Z,32.77
2022-09-22T02:06:31.843Z,32.67
2022-09-22T02:09:03.060Z,32.79
2022-09-22T02:11:31.959Z,32.95
2022-09-22T02:14:00.611Z,32.70
2022-09-22T02:16:31.089Z,32.73
2022-09-22T02:19:12.592Z,32.41
2022-09-22T02:21:45.142Z,32.41
2022-09-22T02:24:47.355Z,31.99
2022-09-22T02:27:23.849Z,32.75
2022-09-22T02:29:54.959Z,32.53
2022-09-22T02:32:25.076Z,32.31
2022-09-22T02:34:55.460Z,32.36
2022-09-22T02:37:27.509Z,32.08
2022-09-22T02:40:04.847Z,31.72
2022-09-22T02:42:36.316Z,32.20
2022-09-22T02:45:10.130Z,32.08
2022-09-22T02:47:42.431Z,31.79
2022-09-22T02:50:12.656Z,32.13
2022-09-22T02:52:41.953Z,32.17
2022-09-22T02:55:11.508Z,32.16
2022-09-22T02:57:39.862Z,32.37
2022-09-22T03:00:08.994Z,32.21
2022-09-22T03:02:37.418Z,32.34
2022-09-22T03:05:08.222Z,32.21
2022-09-22T03:07:36.370Z,32.24
2022-09-22T03:10:04.958Z,32.45
2022-09-22T03:12:33.330Z,32.60
2022-09-22T03:15:01.488Z,32.43
2022-09-22T03:17:32.235Z,32.25
2022-09-22T03:20:00.559Z,32.46
2022-09-22T03:22:30.705Z,32.06
2022-09-22T03:24:58.920Z,32.28
2022-09-22T03:27:27.845Z,32.25
2022-09-22T03:29:56.355Z,32.29
2022-09-22T03:32:24.550Z,32.10
2022-09-22T03:34:52.891Z,32.02
2022-09-22T03:37:21.130Z,32.31
2022-09-22T03:39:50.531Z,32.04
2022-09-22T03:42:18.888Z,32.30
2022-09-22T03:44:47.201Z,32.09
2022-09-22T03:47:15.336Z,32.18
2022-09-22T03:49:43.751Z,32.29
2022-09-22T03:52:12.178Z,32.11
2022-09-22T03:54:40.344Z,32.26
2022-09-22T03:57:10.129Z,32.08
2022-09-22T03:59:38.342Z,32.09
2022-09-22T04:02:06.872Z,32.07
2022-09-22T04:04:35.238Z,32.14
2022-09-22T04:07:07.344Z,32.40
2022-09-22T04:09:36.054Z,32.51
2022-09-22T04:12:04.470Z,32.22
2022-09-22T04:14:33.944Z,31.99
2022-09-22T04:17:02.231Z,32.09
2022-09-22T04:19:35.257Z,31.84
2022-09-22T04:22:03.722Z,31.83
2022-09-22T04:24:33.201Z,31.75
2022-09-22T04:27:18.970Z,31.84
2022-09-22T04:29:50.011Z,31.71
2022-09-22T04:32:18.256Z,31.81
2022-09-22T04:34:47.941Z,31.91
2022-09-22T04:37:16.623Z,31.88
2022-09-22T04:39:44.668Z,31.80
2022-09-22T04:42:12.884Z,31.73
2022-09-22T04:44:41.463Z,31.70
2022-09-22T04:47:10.998Z,31.56
2022-09-22T04:49:39.222Z,31.82
2022-09-22T04:52:07.839Z,31.81
2022-09-22T04:54:36.038Z,31.88
2022-09-22T04:57:04.141Z,31.80
2022-09-22T04:59:32.730Z,31.66
2022-09-22T05:02:00.940Z,31.76
2022-09-22T05:04:30.466Z,31.38
2022-09-22T05:06:58.722Z,31.53
2022-09-22T05:09:26.924Z,31.45
2022-09-22T05:11:58.860Z,31.34
2022-09-22T05:14:27.361Z,31.26
2022-09-22T05:16:55.694Z,31.23
2022-09-22T05:19:24.024Z,31.38
2022-09-22T05:21:54.420Z,30.96
2022-09-22T05:24:22.894Z,31.20
2022-09-22T05:26:51.042Z,31.39
2022-09-22T05:29:19.331Z,31.05
2022-09-22T05:31:47.624Z,31.28
2022-09-22T05:34:15.908Z,31.06
2022-09-22T05:36:44.258Z,31.19
2022-09-22T05:39:13.933Z,31.02
2022-09-22T05:41:42.258Z,31.31
2022-09-22T05:44:10.741Z,31.42
2022-09-22T05:46:39.040Z,31.51
2022-09-22T05:49:07.319Z,31.39
2022-09-22T05:51:35.770Z,31.47
2022-09-22T05:54:03.905Z,31.51
2022-09-22T05:56:33.746Z,30.81
2022-09-22T05:59:02.124Z,31.17
2022-09-22T06:01:31.187Z,30.94
2022-09-22T06:03:59.899Z,30.92
2022-09-22T06:06:28.202Z,30.55
2022-09-22T06:08:56.791Z,30.35
2022-09-22T06:11:25.106Z,30.17
2022-09-22T06:13:55.142Z,30.01
2022-09-22T06:16:23.280Z,29.77
2022-09-22T06:18:51.664Z,29.66
2022-09-22T06:21:21.027Z,29.40
2022-09-22T06:23:49.139Z,29.32
2022-09-22T06:26:17.306Z,29.22
2022-09-22T06:28:45.387Z,29.11
2022-09-22T06:31:16.125Z,28.67
2022-09-22T06:33:48.764Z,27.00
2022-09-22T06:36:24.128Z,28.15
2022-09-22T06:38:54.285Z,28.31
2022-09-22T06:41:22.708Z,27.53
2022-09-22T06:43:52.779Z,27.06
2022-09-22T06:46:23.545Z,27.18
2022-09-22T06:48:51.958Z,27.20
2022-09-22T06:51:20.137Z,26.77
2022-09-22T06:53:51.868Z,26.40
2022-09-22T06:56:20.735Z,26.39
2022-09-22T06:59:08.814Z,26.01
2022-09-22T07:01:39.224Z,25.43
2022-09-22T07:04:07.811Z,26.11
2022-09-22T07:06:37.387Z,25.94
2022-09-22T07:09:07.030Z,25.98
2022-09-22T07:11:39.825Z,25.92
2022-09-22T07:14:09.240Z,25.37
2022-09-22T07:16:40.912Z,24.83
2022-09-22T07:19:09.508Z,24.96
2022-09-22T07:21:37.895Z,23.39
2022-09-22T07:24:08.330Z,23.01
2022-09-22T07:26:39.204Z,22.77
2022-09-22T07:29:11.678Z,23.07
2022-09-22T07:31:43.554Z,23.26
2022-09-22T07:34:12.845Z,23.25
2022-09-22T07:36:41.743Z,23.39
2022-09-22T07:39:12.621Z,23.21
2022-09-22T07:41:43.382Z,20.86
2022-09-22T07:44:29.557Z,17.85
2022-09-22T07:46:59.146Z,15.89
2022-09-22T07:49:27.891Z,14.92
2022-09-22T07:51:57.376Z,13.03
2022-09-22T07:54:26.801Z,12.90
2022-09-22T07:56:58.730Z,14.68
2022-09-22T07:59:27.978Z,15.43
2022-09-22T08:01:56.194Z,15.06
2022-09-22T08:04:26.718Z,13.92
2022-09-22T08:06:56.464Z,13.33
2022-09-22T08:09:25.400Z,12.89
2022-09-22T08:11:53.726Z,11.63
2022-09-22T08:14:23.958Z,11.37
2022-09-22T08:16:53.639Z,11.71
2022-09-22T08:19:25.386Z,12.39
2022-09-22T08:21:54.356Z,13.33
2022-09-22T08:24:23.650Z,14.03
2022-09-22T08:26:55.852Z,14.95
2022-09-22T08:29:24.813Z,15.77
2022-09-22T08:31:54.247Z,15.69
2022-09-22T08:34:23.040Z,16.14
2022-09-22T08:36:52.456Z,15.49
2022-09-22T08:39:20.791Z,15.25
2022-09-22T08:42:05.916Z,14.53
2022-09-22T08:44:38.277Z,14.11
2022-09-22T08:47:06.883Z,14.54
2022-09-22T08:49:56.150Z,13.74
2022-09-22T08:52:29.594Z,13.16
2022-09-22T08:54:59.696Z,13.40
2022-09-22T08:57:56.546Z,13.24
2022-09-22T09:00:25.788Z,13.32
2022-09-22T09:03:03.068Z,12.22
2022-09-22T09:06:04.530Z,11.18
2022-09-22T09:09:11.124Z,10.83
2022-09-22T09:12:01.273Z,10.14
2022-09-22T09:14:44.595Z,8.94
2022-09-22T09:17:15.864Z,10.11
2022-09-22T09:19:45.323Z,11.43
2022-09-22T09:22:19.183Z,11.65
2022-09-22T09:27:41.673Z,10.25
2022-09-22T09:30:14.498Z,9.35
2022-09-22T09:32:48.289Z,9.26
2022-09-22T09:35:18.275Z,10.40
2022-09-22T09:37:48.133Z,11.25
2022-09-22T09:40:20.185Z,12.23
2022-09-22T09:42:57.740Z,12.39
2022-09-22T09:45:32.031Z,12.44
2022-09-22T09:48:09.923Z,11.67
2022-09-22T09:50:37.965Z,11.96
2022-09-22T09:53:08.559Z,11.51
2022-09-22T09:55:38.423Z,11.77
2022-09-22T09:58:09.337Z,11.24
2022-09-22T10:00:53.145Z,10.64
2022-09-22T10:03:26.333Z,10.88
2022-09-22T10:06:00.826Z,10.55
2022-09-22T10:08:32.298Z,10.58
2022-09-22T10:11:02.271Z,11.12
2022-09-22T10:13:33.554Z,10.57
2022-09-22T10:16:08.923Z,9.87
2022-09-22T10:18:40.607Z,8.72
2022-09-22T10:21:16.361Z,8.17
2022-09-22T10:23:46.889Z,7.77
2022-09-22T10:26:22.918Z,7.42
2022-09-22T10:29:16.327Z,7.30
2022-09-22T10:32:02.687Z,7.02
2022-09-22T10:34:33.917Z,7.58
2022-09-22T10:37:03.558Z,7.54
2022-09-22T10:39:38.060Z,7.87
2022-09-22T10:42:17.308Z,9.22
2022-09-22T10:44:48.888Z,10.69
2022-09-22T10:47:31.570Z,10.59
2022-09-22T10:50:36.813Z,11.18
2022-09-22T10:53:17.642Z,11.83
2022-09-22T10:55:53.824Z,11.35
2022-09-22T10:58:45.593Z,12.28
2022-09-22T11:01:34.469Z,13.12
2022-09-22T11:04:18.220Z,14.25
2022-09-22T11:07:36.304Z,15.32
2022-09-22T11:10:33.626Z,16.86
2022-09-22T11:13:07.889Z,17.55
2022-09-22T11:15:47.567Z,17.94
2022-09-22T11:18:34.456Z,17.90
2022-09-22T11:21:18.695Z,18.52
2022-09-22T11:24:01.720Z,18.30
2022-09-22T11:26:42.032Z,18.25
2022-09-22T11:29:32.194Z,18.09
2022-09-22T11:32:10.242Z,17.83
2022-09-22T11:35:00.062Z,17.17
2022-09-22T11:37:42.166Z,15.48
2022-09-22T11:40:29.543Z,14.40
2022-09-22T11:43:05.751Z,14.11
2022-09-22T11:45:45.526Z,13.65
2022-09-22T11:48:29.557Z,13.63
2022-09-22T11:51:19.963Z,13.54
2022-09-22T11:54:12.682Z,13.35
2022-09-22T11:56:42.964Z,13.77
2022-09-22T11:59:21.967Z,14.51
2022-09-22T12:01:50.779Z,17.09
2022-09-22T12:04:27.731Z,17.33
2022-09-22T12:06:57.212Z,19.85
2022-09-22T12:09:40.153Z,22.05
2022-09-22T12:12:12.109Z,23.98
2022-09-22T12:14:42.017Z,25.00
2022-09-22T12:17:14.076Z,25.25
2022-09-22T12:19:54.650Z,24.86
2022-09-22T12:22:27.838Z,24.46
2022-09-22T12:24:56.484Z,24.07
2022-09-22T12:27:26.851Z,23.11
2022-09-22T12:30:18.984Z,22.01
2022-09-22T12:32:50.707Z,22.16
2022-09-22T12:35:31.397Z,21.95
2022-09-22T12:38:02.227Z,21.80
2022-09-22T12:40:32.212Z,22.27
2022-09-22T12:43:01.146Z,22.21
2022-09-22T12:45:33.815Z,21.94
2022-09-22T12:48:10.890Z,22.05
2022-09-22T12:50:42.421Z,22.19
2022-09-22T12:53:13.818Z,22.62
2022-09-22T12:55:42.219Z,22.88
2022-09-22T12:58:41.671Z,22.21
2022-09-22T13:01:35.409Z,21.65
2022-09-22T13:05:00.153Z,21.79
2022-09-22T13:08:04.887Z,22.59
2022-09-22T13:10:44.051Z,23.13
2022-09-22T13:13:20.459Z,24.03
2022-09-22T13:16:02.680Z,23.86
2022-09-22T13:18:45.561Z,24.23
2022-09-22T13:21:21.559Z,23.87
2022-09-22T13:23:58.743Z,23.34
2022-09-22T13:26:30.377Z,23.95
2022-09-22T13:29:04.862Z,23.88
2022-09-22T13:31:41.331Z,23.56
2022-09-22T13:34:25.420Z,22.95
2022-09-22T13:36:56.374Z,23.15
2022-09-22T13:39:26.729Z,22.79
2022-09-22T13:41:59.857Z,22.31
2022-09-22T13:44:30.554Z,22.46
2022-09-22T13:47:00.844Z,21.97
2022-09-22T13:49:32.611Z,22.05
2022-09-22T13:52:05.418Z,22.24
2022-09-22T13:54:36.046Z,22.98
2022-09-22T13:57:07.886Z,22.89
2022-09-22T13:59:40.781Z,23.04
2022-09-22T14:02:11.378Z,23.20
2022-09-22T14:04:50.985Z,23.12
2022-09-22T14:07:21.543Z,23.30
2022-09-22T14:09:50.645Z,23.39
2022-09-22T14:12:20.848Z,23.49
2022-09-22T14:14:49.363Z,23.45
2022-09-22T14:17:19.733Z,23.59
2022-09-22T14:19:54.281Z,23.22
2022-09-22T14:22:24.768Z,23.25
2022-09-22T14:24:56.644Z,22.63
2022-09-22T14:27:31.311Z,21.87
2022-09-22T14:29:59.568Z,22.02
2022-09-22T14:32:35.229Z,21.31
2022-09-22T14:35:06.125Z,22.06
2022-09-22T14:37:35.951Z,21.76
2022-09-22T14:40:06.995Z,21.99
2022-09-22T14:42:37.474Z,22.18
2022-09-22T14:45:27.695Z,21.64
2022-09-22T14:48:18.291Z,21.74
2022-09-22T14:50:48.666Z,22.35
2022-09-22T14:53:21.849Z,22.05
2022-09-22T14:55:52.760Z,21.90
2022-09-22T14:58:25.729Z,21.47
2022-09-22T15:01:13.712Z,21.75
2022-09-22T15:03:42.884Z,21.93
2022-09-22T15:06:12.962Z,21.43
2022-09-22T15:08:42.513Z,21.98
2022-09-22T15:11:11.643Z,21.68
2022-09-22T15:13:42.651Z,21.82
2022-09-22T15:16:25.758Z,20.98
2022-09-22T15:18:54.115Z,22.35
2022-09-22T15:21:29.195Z,22.40
2022-09-22T15:23:58.330Z,22.40
2022-09-22T15:26:28.190Z,22.73
2022-09-22T15:28:59.183Z,22.66
2022-09-22T15:31:30.028Z,22.65
2022-09-22T15:34:02.273Z,22.75
2022-09-22T15:36:33.050Z,22.73
2022-09-22T15:39:07.554Z,23.16
2022-09-22T15:41:37.728Z,23.19
2022-09-22T15:44:07.595Z,23.09
2022-09-22T15:46:37.041Z,23.19
2022-09-22T15:49:08.901Z,23.42
2022-09-22T15:51:37.479Z,23.40
2022-09-22T15:54:07.874Z,23.73
2022-09-22T15:56:36.345Z,23.71
2022-09-22T15:59:05.680Z,23.55
2022-09-22T16:01:36.334Z,23.67
2022-09-22T16:04:05.042Z,23.75
2022-09-22T16:06:33.722Z,23.80
2022-09-22T16:09:02.311Z,24.76
2022-09-22T16:11:31.593Z,25.00
2022-09-22T16:14:03.760Z,25.51
2022-09-22T16:16:33.086Z,25.72
2022-09-22T16:19:03.216Z,25.42
2022-09-22T16:21:33.595Z,25.82
2022-09-22T16:24:05.229Z,25.77
2022-09-22T16:26:33.649Z,26.07
2022-09-22T16:29:02.090Z,26.37
2022-09-22T16:31:30.799Z,26.63
2022-09-22T16:34:01.481Z,26.93
2022-09-22T16:36:33.110Z,26.66
2022-09-22T16:39:02.358Z,26.79
2022-09-22T16:41:32.282Z,27.04
2022-09-22T16:44:01.301Z,26.97
2022-09-22T16:46:31.631Z,27.02
2022-09-22T16:49:04.238Z,27.01
2022-09-22T16:51:35.634Z,26.96
2022-09-22T16:54:04.474Z,27.38
2022-09-22T16:56:34.402Z,27.63
2022-09-22T16:59:03.421Z,27.57
2022-09-22T17:01:33.146Z,27.87
2022-09-22T17:04:01.384Z,28.38
2022-09-22T17:06:29.895Z,29.18
2022-09-22T17:09:01.049Z,28.84
2022-09-22T17:11:34.584Z,28.98
2022-09-22T17:14:10.046Z,29.21
2022-09-22T17:16:40.932Z,29.60
2022-09-22T17:19:11.357Z,29.62
2022-09-22T17:21:41.162Z,29.84
2022-09-22T17:24:10.923Z,29.78
2022-09-22T17:26:41.914Z,29.99
2022-09-22T17:29:11.283Z,29.83
2022-09-22T17:31:41.404Z,30.01
2022-09-22T17:34:10.684Z,29.93
2022-09-22T17:36:39.036Z,30.14
2022-09-22T17:39:10.627Z,29.98
2022-09-22T17:41:47.060Z,30.08
2022-09-22T17:44:21.244Z,30.28
2022-09-22T17:47:08.121Z,30.17
2022-09-22T17:49:53.819Z,30.31
2022-09-22T17:52:39.993Z,30.23
2022-09-22T17:55:12.127Z,29.94
2022-09-22T17:57:43.031Z,30.05
2022-09-22T18:00:13.283Z,29.90
2022-09-22T18:02:42.004Z,30.16
2022-09-22T18:05:14.102Z,29.76
2022-09-22T18:07:43.205Z,29.88
2022-09-22T18:10:13.339Z,30.01
2022-09-22T18:12:43.509Z,29.98
2022-09-22T18:15:13.975Z,30.05
2022-09-22T18:17:43.726Z,30.25
2022-09-22T18:20:16.404Z,30.30
2022-09-22T18:22:48.287Z,30.48
2022-09-22T18:25:19.849Z,30.52
2022-09-22T18:27:49.614Z,30.53
2022-09-22T18:30:19.710Z,30.54
2022-09-22T18:32:48.482Z,30.92
2022-09-22T18:35:17.517Z,31.01
2022-09-22T18:37:46.338Z,30.89
2022-09-22T18:40:16.158Z,31.17
2022-09-22T18:42:44.887Z,31.25
2022-09-22T18:45:14.702Z,31.01
2022-09-22T18:47:43.803Z,31.53
2022-09-22T18:50:13.059Z,31.28
2022-09-22T18:52:43.359Z,31.52
2022-09-22T18:55:18.603Z,31.28
2022-09-22T18:57:48.428Z,31.33
2022-09-22T19:00:22.266Z,31.25
2022-09-22T19:02:51.028Z,31.42
2022-09-22T19:05:19.817Z,31.93
2022-09-22T19:07:48.472Z,31.70
2022-09-22T19:10:21.928Z,31.50
2022-09-22T19:12:50.422Z,31.44
2022-09-22T19:15:20.416Z,31.40
2022-09-22T19:17:50.864Z,31.33
2022-09-22T19:20:22.584Z,31.22
2022-09-22T19:22:52.588Z,31.31
2022-09-22T19:25:22.578Z,31.26
2022-09-22T19:27:55.647Z,31.46
2022-09-22T19:30:29.682Z,31.28
2022-09-22T19:32:59.734Z,31.57
2022-09-22T19:35:29.729Z,31.50
2022-09-22T19:37:58.261Z,31.90
2022-09-22T19:40:26.696Z,31.75
2022-09-22T19:42:55.693Z,31.66
2022-09-22T19:45:26.596Z,31.46
2022-09-22T19:47:57.006Z,31.78
2022-09-22T19:50:25.427Z,31.84
2022-09-22T19:52:53.592Z,31.78
2022-09-22T19:55:22.182Z,31.79
2022-09-22T19:57:53.156Z,31.82
2022-09-22T20:00:26.310Z,31.59
2022-09-22T20:02:59.262Z,31.33
2022-09-22T20:05:28.898Z,31.75
2022-09-22T20:07:57.226Z,31.95
2022-09-22T20:10:25.526Z,31.89
2022-09-22T20:12:53.881Z,31.92
2022-09-22T20:15:21.223Z,32.04
2022-09-22T20:17:49.417Z,31.99
2022-09-22T20:20:21.126Z,31.79
2022-09-22T20:22:53.117Z,31.94
2022-09-22T20:25:23.930Z,31.85
2022-09-22T20:27:52.445Z,32.05
2022-09-22T20:30:20.668Z,32.31
2022-09-22T20:32:50.419Z,32.24
2022-09-22T20:35:22.081Z,31.85
2022-09-22T20:37:51.673Z,32.37
2022-09-22T20:40:21.724Z,32.25
2022-09-22T20:42:50.891Z,32.02
2022-09-22T20:45:21.037Z,32.02
2022-09-22T20:47:49.335Z,31.96
2022-09-22T20:50:17.709Z,31.98
2022-09-22T20:52:48.044Z,31.78
2022-09-22T20:55:17.249Z,31.83
2022-09-22T20:57:45.435Z,31.76
2022-09-22T21:00:15.467Z,31.66
2022-09-22T21:02:44.268Z,31.79
2022-09-22T21:05:12.607Z,31.67
2022-09-22T21:07:40.775Z,31.85
2022-09-22T21:10:28.273Z,31.22
2022-09-22T21:12:56.594Z,31.80
2022-09-22T21:15:25.154Z,31.35
2022-09-22T21:17:53.695Z,31.61
2022-09-22T21:20:21.889Z,31.67
2022-09-22T21:22:50.730Z,31.79
2022-09-22T21:25:20.518Z,31.44
2022-09-22T21:27:48.619Z,31.47
2022-09-22T21:30:17.198Z,31.56
2022-09-22T21:32:45.413Z,31.59
2022-09-22T21:35:16.830Z,31.61
2022-09-22T21:37:45.869Z,31.58
2022-09-22T21:40:14.376Z,31.36
2022-09-22T21:42:45.209Z,31.22
2022-09-22T21:45:13.762Z,31.33
2022-09-22T21:47:42.051Z,31.34
2022-09-22T21:50:11.093Z,31.34
2022-09-22T21:52:39.611Z,31.68
2022-09-22T21:55:08.537Z,31.65
2022-09-22T21:57:37.209Z,31.54
2022-09-22T22:00:08.947Z,31.27
2022-09-22T22:02:57.833Z,31.53
2022-09-22T22:05:27.387Z,31.68
2022-09-22T22:07:55.502Z,31.51
2022-09-22T22:10:24.283Z,31.73
2022-09-22T22:12:52.695Z,31.71
2022-09-22T22:15:23.554Z,31.48
2022-09-22T22:17:51.654Z,31.77
2022-09-22T22:20:20.040Z,31.92
2022-09-22T22:22:48.149Z,31.92
2022-09-22T22:25:17.462Z,31.90
2022-09-22T22:27:46.265Z,32.08
2022-09-22T22:30:14.684Z,31.90
2022-09-22T22:32:44.280Z,31.63
2022-09-22T22:35:12.849Z,32.09
2022-09-22T22:37:41.003Z,32.25
2022-09-22T22:40:10.058Z,32.03
2022-09-22T22:42:38.556Z,32.17
2022-09-22T22:45:07.407Z,32.11
2022-09-22T22:47:35.516Z,32.38
2022-09-22T22:50:06.523Z,32.01
2022-09-22T22:52:37.671Z,32.12
2022-09-22T22:55:06.841Z,31.97
2022-09-22T22:57:35.023Z,32.09
2022-09-22T23:00:03.506Z,32.02
2022-09-22T23:02:31.958Z,32.13
2022-09-22T23:05:01.395Z,32.06
2022-09-22T23:07:31.006Z,31.87
2022-09-22T23:10:07.227Z,31.89
2022-09-22T23:12:35.643Z,31.80
2022-09-22T23:15:04.566Z,31.83
2022-09-22T23:17:32.756Z,31.91
2022-09-22T23:20:00.794Z,31.86
2022-09-22T23:22:30.804Z,31.66
2022-09-22T23:24:59.038Z,31.95
2022-09-22T23:27:28.494Z,31.63
2022-09-22T23:29:57.454Z,31.77
2022-09-22T23:32:25.754Z,31.74
2022-09-22T23:34:54.078Z,31.52
2022-09-22T23:37:25.026Z,31.35
2022-09-22T23:39:55.167Z,31.15
2022-09-22T23:42:24.427Z,31.63
2022-09-22T23:44:52.530Z,31.39
2022-09-22T23:47:21.027Z,31.54
2022-09-22T23:49:49.443Z,31.18
2022-09-22T23:52:17.453Z,31.15
2022-09-22T23:54:45.952Z,31.15
2022-09-22T23:57:15.697Z,30.95
2022-09-22T23:59:43.924Z,31.42
